sensor_id;sensor_type;location;lat;lon;timestamp;pressure;altitude;pressure_sealevel;temperature;humidity
36192;BME280;22233;42.708;23.360;2023-09-19T00:00:30;95813.19;;;17.88;66.09
36192;BME280;22233;42.708;23.360;2023-09-19T00:02:57;95815.72;;;17.81;66.23
36192;BME280;22233;42.708;23.360;2023-09-19T00:05:25;95814.44;;;17.91;66.42
36192;BME280;22233;42.708;23.360;2023-09-19T00:07:53;95817.69;;;17.68;67.06
36192;BME280;22233;42.708;23.360;2023-09-19T00:10:22;95822.84;;;17.70;67.14
36192;BME280;22233;42.708;23.360;2023-09-19T00:12:55;95822.63;;;17.75;66.52
36192;BME280;22233;42.708;23.360;2023-09-19T00:15:25;95806.50;;;18.02;66.19
36192;BME280;22233;42.708;23.360;2023-09-19T00:17:54;95811.31;;;18.21;64.93
36192;BME280;22233;42.708;23.360;2023-09-19T00:20:19;95797.09;;;18.19;65.29
36192;BME280;22233;42.708;23.360;2023-09-19T00:22:48;95798.00;;;17.66;66.84
36192;BME280;22233;42.708;23.360;2023-09-19T00:25:14;95800.81;;;17.54;67.72
36192;BME280;22233;42.708;23.360;2023-09-19T00:27:41;95803.66;;;17.57;67.51
36192;BME280;22233;42.708;23.360;2023-09-19T00:30:11;95780.81;;;17.41;67.31
36192;BME280;22233;42.708;23.360;2023-09-19T00:32:47;95803.03;;;18.05;66.00
36192;BME280;22233;42.708;23.360;2023-09-19T00:35:14;95790.78;;;18.02;65.67
36192;BME280;22233;42.708;23.360;2023-09-19T00:37:40;95804.97;;;18.04;66.50
36192;BME280;22233;42.708;23.360;2023-09-19T00:40:09;95795.16;;;18.03;66.07
36192;BME280;22233;42.708;23.360;2023-09-19T00:42:42;95792.69;;;18.30;65.54
36192;BME280;22233;42.708;23.360;2023-09-19T00:45:09;95783.78;;;17.89;66.76
36192;BME280;22233;42.708;23.360;2023-09-19T00:47:40;95781.34;;;18.15;65.51
36192;BME280;22233;42.708;23.360;2023-09-19T00:50:08;95776.81;;;18.23;65.53
36192;BME280;22233;42.708;23.360;2023-09-19T00:52:37;95787.56;;;17.84;66.75
36192;BME280;22233;42.708;23.360;2023-09-19T00:55:07;95787.06;;;17.82;67.10
36192;BME280;22233;42.708;23.360;2023-09-19T00:57:34;95785.13;;;17.95;66.87
36192;BME280;22233;42.708;23.360;2023-09-19T01:00:01;95787.34;;;18.05;66.51
36192;BME280;22233;42.708;23.360;2023-09-19T01:02:31;95793.88;;;18.01;66.59
36192;BME280;22233;42.708;23.360;2023-09-19T01:04:58;95781.69;;;18.14;66.01
36192;BME280;22233;42.708;23.360;2023-09-19T01:07:23;95777.75;;;17.99;66.61
36192;BME280;22233;42.708;23.360;2023-09-19T01:09:49;95783.53;;;18.10;66.33
36192;BME280;22233;42.708;23.360;2023-09-19T01:12:22;95795.63;;;17.65;67.80
36192;BME280;22233;42.708;23.360;2023-09-19T01:14:57;95786.75;;;17.84;67.16
36192;BME280;22233;42.708;23.360;2023-09-19T01:17:43;95775.63;;;17.80;66.88
36192;BME280;22233;42.708;23.360;2023-09-19T01:20:19;95784.50;;;17.73;67.13
36192;BME280;22233;42.708;23.360;2023-09-19T01:26:26;95792.00;;;17.76;66.92
36192;BME280;22233;42.708;23.360;2023-09-19T01:31:04;95794.53;;;17.53;68.17
36192;BME280;22233;42.708;23.360;2023-09-19T01:34:02;95799.72;;;17.71;67.48
36192;BME280;22233;42.708;23.360;2023-09-19T01:36:34;95784.59;;;17.49;67.91
36192;BME280;22233;42.708;23.360;2023-09-19T01:39:03;95789.75;;;17.38;68.63
36192;BME280;22233;42.708;23.360;2023-09-19T01:41:58;95786.44;;;17.45;68.53
36192;BME280;22233;42.708;23.360;2023-09-19T01:47:37;95785.38;;;17.49;68.64
36192;BME280;22233;42.708;23.360;2023-09-19T01:52:38;95778.47;;;17.27;69.16
36192;BME280;22233;42.708;23.360;2023-09-19T01:55:09;95785.66;;;17.32;68.65
36192;BME280;22233;42.708;23.360;2023-09-19T02:00:32;95792.88;;;17.36;69.19
36192;BME280;22233;42.708;23.360;2023-09-19T02:03:00;95798.63;;;17.60;68.27
36192;BME280;22233;42.708;23.360;2023-09-19T02:05:27;95798.22;;;17.73;67.28
36192;BME280;22233;42.708;23.360;2023-09-19T02:07:53;95793.41;;;17.70;67.22
36192;BME280;22233;42.708;23.360;2023-09-19T02:10:19;95777.25;;;17.81;67.01
36192;BME280;22233;42.708;23.360;2023-09-19T02:12:44;95784.56;;;17.89;66.93
36192;BME280;22233;42.708;23.360;2023-09-19T02:15:10;95796.09;;;17.83;67.13
36192;BME280;22233;42.708;23.360;2023-09-19T02:17:35;95777.00;;;17.86;66.82
36192;BME280;22233;42.708;23.360;2023-09-19T02:20:01;95783.53;;;17.82;66.95
36192;BME280;22233;42.708;23.360;2023-09-19T02:22:27;95793.72;;;17.81;67.35
36192;BME280;22233;42.708;23.360;2023-09-19T02:24:53;95792.47;;;17.78;67.24
36192;BME280;22233;42.708;23.360;2023-09-19T02:27:19;95793.81;;;17.97;66.80
36192;BME280;22233;42.708;23.360;2023-09-19T02:29:44;95785.75;;;18.04;65.99
36192;BME280;22233;42.708;23.360;2023-09-19T02:32:10;95771.81;;;17.97;66.50
36192;BME280;22233;42.708;23.360;2023-09-19T02:34:36;95774.06;;;17.79;66.87
36192;BME280;22233;42.708;23.360;2023-09-19T02:37:07;95777.72;;;17.83;66.70
36192;BME280;22233;42.708;23.360;2023-09-19T02:39:36;95767.84;;;17.82;66.76
36192;BME280;22233;42.708;23.360;2023-09-19T02:42:01;95758.97;;;17.45;67.72
36192;BME280;22233;42.708;23.360;2023-09-19T02:44:29;95765.59;;;17.72;67.37
36192;BME280;22233;42.708;23.360;2023-09-19T02:46:54;95748.94;;;17.65;67.90
36192;BME280;22233;42.708;23.360;2023-09-19T02:49:20;95758.34;;;17.80;67.35
36192;BME280;22233;42.708;23.360;2023-09-19T02:51:45;95759.38;;;17.59;68.03
36192;BME280;22233;42.708;23.360;2023-09-19T02:54:13;95746.31;;;17.56;67.95
36192;BME280;22233;42.708;23.360;2023-09-19T02:56:40;95742.38;;;17.41;67.98
36192;BME280;22233;42.708;23.360;2023-09-19T02:59:05;95753.56;;;17.76;66.93
36192;BME280;22233;42.708;23.360;2023-09-19T03:01:31;95757.00;;;17.45;67.54
36192;BME280;22233;42.708;23.360;2023-09-19T03:03:57;95753.31;;;17.53;67.78
36192;BME280;22233;42.708;23.360;2023-09-19T03:06:23;95738.19;;;17.60;67.15
36192;BME280;22233;42.708;23.360;2023-09-19T03:08:49;95742.88;;;17.59;67.20
36192;BME280;22233;42.708;23.360;2023-09-19T03:11:16;95746.59;;;17.51;67.57
36192;BME280;22233;42.708;23.360;2023-09-19T03:13:44;95755.16;;;17.49;67.96
36192;BME280;22233;42.708;23.360;2023-09-19T03:16:11;95743.19;;;17.42;67.63
36192;BME280;22233;42.708;23.360;2023-09-19T03:18:36;95743.06;;;17.38;67.91
36192;BME280;22233;42.708;23.360;2023-09-19T03:21:02;95743.47;;;17.52;67.87
36192;BME280;22233;42.708;23.360;2023-09-19T03:23:28;95732.16;;;17.13;68.75
36192;BME280;22233;42.708;23.360;2023-09-19T03:25:55;95733.78;;;17.02;69.33
36192;BME280;22233;42.708;23.360;2023-09-19T03:28:21;95716.19;;;17.03;68.39
36192;BME280;22233;42.708;23.360;2023-09-19T03:31:01;95724.22;;;16.84;69.46
36192;BME280;22233;42.708;23.360;2023-09-19T03:33:27;95732.06;;;17.10;69.31
36192;BME280;22233;42.708;23.360;2023-09-19T03:35:53;95729.47;;;16.89;69.80
36192;BME280;22233;42.708;23.360;2023-09-19T03:38:19;95725.88;;;17.13;68.54
36192;BME280;22233;42.708;23.360;2023-09-19T03:40:45;95736.59;;;17.18;68.52
36192;BME280;22233;42.708;23.360;2023-09-19T03:43:10;95752.25;;;17.30;68.59
36192;BME280;22233;42.708;23.360;2023-09-19T03:45:35;95742.88;;;17.31;68.37
36192;BME280;22233;42.708;23.360;2023-09-19T03:48:08;95746.38;;;17.03;68.69
36192;BME280;22233;42.708;23.360;2023-09-19T03:50:33;95753.75;;;17.27;68.84
36192;BME280;22233;42.708;23.360;2023-09-19T03:52:59;95759.75;;;17.45;67.51
36192;BME280;22233;42.708;23.360;2023-09-19T03:55:24;95753.22;;;17.50;67.80
36192;BME280;22233;42.708;23.360;2023-09-19T03:57:49;95755.84;;;17.46;67.76
36192;BME280;22233;42.708;23.360;2023-09-19T04:00:15;95762.16;;;17.47;67.70
36192;BME280;22233;42.708;23.360;2023-09-19T04:02:43;95760.63;;;17.21;67.93
36192;BME280;22233;42.708;23.360;2023-09-19T04:05:09;95759.94;;;17.52;67.52
36192;BME280;22233;42.708;23.360;2023-09-19T04:07:35;95750.13;;;17.51;67.21
36192;BME280;22233;42.708;23.360;2023-09-19T04:10:01;95756.56;;;17.71;66.85
36192;BME280;22233;42.708;23.360;2023-09-19T04:12:28;95752.75;;;17.76;66.26
36192;BME280;22233;42.708;23.360;2023-09-19T04:14:53;95758.22;;;17.20;67.73
36192;BME280;22233;42.708;23.360;2023-09-19T04:17:18;95766.84;;;17.46;66.93
36192;BME280;22233;42.708;23.360;2023-09-19T04:19:44;95770.03;;;17.48;67.53
36192;BME280;22233;42.708;23.360;2023-09-19T04:22:11;95781.06;;;17.64;67.46
36192;BME280;22233;42.708;23.360;2023-09-19T04:24:37;95768.84;;;17.62;66.85
36192;BME280;22233;42.708;23.360;2023-09-19T04:27:04;95772.78;;;17.76;66.67
36192;BME280;22233;42.708;23.360;2023-09-19T04:29:29;95755.94;;;17.78;66.38
36192;BME280;22233;42.708;23.360;2023-09-19T04:31:55;95765.16;;;17.70;66.54
36192;BME280;22233;42.708;23.360;2023-09-19T04:34:22;95766.94;;;17.78;66.87
36192;BME280;22233;42.708;23.360;2023-09-19T04:36:48;95768.75;;;17.86;66.34
36192;BME280;22233;42.708;23.360;2023-09-19T04:39:14;95738.84;;;17.69;66.53
36192;BME280;22233;42.708;23.360;2023-09-19T04:41:39;95763.41;;;17.49;68.04
36192;BME280;22233;42.708;23.360;2023-09-19T04:44:06;95763.13;;;17.67;66.81
36192;BME280;22233;42.708;23.360;2023-09-19T04:46:35;95760.91;;;17.72;67.33
36192;BME280;22233;42.708;23.360;2023-09-19T04:49:01;95759.47;;;17.63;67.11
36192;BME280;22233;42.708;23.360;2023-09-19T04:51:27;95754.50;;;17.68;67.34
36192;BME280;22233;42.708;23.360;2023-09-19T04:53:58;95726.91;;;17.21;68.78
36192;BME280;22233;42.708;23.360;2023-09-19T04:56:23;95747.25;;;17.76;66.55
36192;BME280;22233;42.708;23.360;2023-09-19T04:58:49;95760.91;;;17.44;67.99
36192;BME280;22233;42.708;23.360;2023-09-19T05:01:14;95755.66;;;17.39;68.58
36192;BME280;22233;42.708;23.360;2023-09-19T05:03:40;95761.38;;;17.34;68.14
36192;BME280;22233;42.708;23.360;2023-09-19T05:06:06;95732.28;;;17.17;68.54
36192;BME280;22233;42.708;23.360;2023-09-19T05:08:31;95756.56;;;17.43;68.22
36192;BME280;22233;42.708;23.360;2023-09-19T05:10:56;95764.44;;;16.92;69.91
36192;BME280;22233;42.708;23.360;2023-09-19T05:13:22;95762.41;;;16.89;70.49
36192;BME280;22233;42.708;23.360;2023-09-19T05:15:49;95754.25;;;17.17;70.92
36192;BME280;22233;42.708;23.360;2023-09-19T05:18:15;95755.81;;;18.15;67.49
36192;BME280;22233;42.708;23.360;2023-09-19T05:20:41;95724.09;;;18.37;64.79
36192;BME280;22233;42.708;23.360;2023-09-19T05:23:07;95739.09;;;17.92;66.45
36192;BME280;22233;42.708;23.360;2023-09-19T05:25:35;95754.38;;;18.05;67.27
36192;BME280;22233;42.708;23.360;2023-09-19T05:28:05;95740.97;;;17.75;67.43
36192;BME280;22233;42.708;23.360;2023-09-19T05:30:32;95754.00;;;18.07;66.58
36192;BME280;22233;42.708;23.360;2023-09-19T05:32:57;95755.88;;;18.34;66.35
36192;BME280;22233;42.708;23.360;2023-09-19T05:35:24;95741.44;;;18.38;66.14
36192;BME280;22233;42.708;23.360;2023-09-19T05:37:53;95741.31;;;18.66;65.31
36192;BME280;22233;42.708;23.360;2023-09-19T05:40:20;95729.16;;;18.51;64.86
36192;BME280;22233;42.708;23.360;2023-09-19T05:42:46;95729.97;;;18.67;64.73
36192;BME280;22233;42.708;23.360;2023-09-19T05:45:13;95736.91;;;18.45;65.63
36192;BME280;22233;42.708;23.360;2023-09-19T05:47:42;95716.38;;;18.59;66.38
36192;BME280;22233;42.708;23.360;2023-09-19T05:50:09;95721.06;;;18.90;64.97
36192;BME280;22233;42.708;23.360;2023-09-19T05:52:36;95719.91;;;18.91;63.94
36192;BME280;22233;42.708;23.360;2023-09-19T05:55:06;95724.72;;;19.13;64.48
36192;BME280;22233;42.708;23.360;2023-09-19T05:57:33;95735.72;;;19.13;63.75
36192;BME280;22233;42.708;23.360;2023-09-19T05:59:59;95734.56;;;18.79;64.78
36192;BME280;22233;42.708;23.360;2023-09-19T06:02:24;95733.06;;;18.82;64.50
36192;BME280;22233;42.708;23.360;2023-09-19T06:04:54;95719.03;;;18.71;64.61
36192;BME280;22233;42.708;23.360;2023-09-19T06:07:21;95719.09;;;18.74;64.97
36192;BME280;22233;42.708;23.360;2023-09-19T06:09:47;95731.34;;;18.93;64.16
36192;BME280;22233;42.708;23.360;2023-09-19T06:12:12;95724.78;;;19.17;63.74
36192;BME280;22233;42.708;23.360;2023-09-19T06:14:42;95723.38;;;19.43;63.03
36192;BME280;22233;42.708;23.360;2023-09-19T06:17:08;95702.34;;;19.34;62.77
36192;BME280;22233;42.708;23.360;2023-09-19T06:19:34;95713.34;;;19.15;63.63
36192;BME280;22233;42.708;23.360;2023-09-19T06:21:59;95715.19;;;19.46;63.46
36192;BME280;22233;42.708;23.360;2023-09-19T06:24:24;95710.69;;;19.38;63.22
36192;BME280;22233;42.708;23.360;2023-09-19T06:26:51;95718.44;;;19.32;63.42
36192;BME280;22233;42.708;23.360;2023-09-19T06:29:18;95708.34;;;19.60;62.39
36192;BME280;22233;42.708;23.360;2023-09-19T06:31:44;95704.66;;;19.71;62.03
36192;BME280;22233;42.708;23.360;2023-09-19T06:34:10;95706.53;;;19.87;61.93
36192;BME280;22233;42.708;23.360;2023-09-19T06:36:35;95706.38;;;19.80;62.42
36192;BME280;22233;42.708;23.360;2023-09-19T06:39:01;95712.03;;;19.87;62.84
36192;BME280;22233;42.708;23.360;2023-09-19T06:41:29;95704.78;;;19.98;60.96
36192;BME280;22233;42.708;23.360;2023-09-19T06:43:55;95707.09;;;20.19;61.05
36192;BME280;22233;42.708;23.360;2023-09-19T06:46:20;95716.06;;;20.59;60.05
36192;BME280;22233;42.708;23.360;2023-09-19T06:48:46;95701.56;;;20.65;59.26
36192;BME280;22233;42.708;23.360;2023-09-19T06:51:13;95718.84;;;20.62;58.45
36192;BME280;22233;42.708;23.360;2023-09-19T06:53:41;95721.38;;;20.71;58.91
36192;BME280;22233;42.708;23.360;2023-09-19T06:56:07;95712.13;;;20.60;58.67
36192;BME280;22233;42.708;23.360;2023-09-19T06:58:32;95711.41;;;20.63;58.50
36192;BME280;22233;42.708;23.360;2023-09-19T07:00:58;95704.91;;;20.28;60.90
36192;BME280;22233;42.708;23.360;2023-09-19T07:03:23;95729.22;;;20.69;58.74
36192;BME280;22233;42.708;23.360;2023-09-19T07:05:51;95728.00;;;20.93;57.98
36192;BME280;22233;42.708;23.360;2023-09-19T07:08:18;95721.66;;;20.89;58.78
36192;BME280;22233;42.708;23.360;2023-09-19T07:10:45;95737.22;;;21.01;58.51
36192;BME280;22233;42.708;23.360;2023-09-19T07:13:14;95720.53;;;20.67;58.88
36192;BME280;22233;42.708;23.360;2023-09-19T07:15:42;95715.38;;;20.92;58.25
36192;BME280;22233;42.708;23.360;2023-09-19T07:18:15;95726.81;;;21.21;57.43
36192;BME280;22233;42.708;23.360;2023-09-19T07:20:42;95720.13;;;21.22;58.37
36192;BME280;22233;42.708;23.360;2023-09-19T07:23:20;95721.06;;;21.33;57.03
36192;BME280;22233;42.708;23.360;2023-09-19T07:25:48;95719.78;;;21.27;56.85
36192;BME280;22233;42.708;23.360;2023-09-19T07:28:14;95711.59;;;21.34;56.27
36192;BME280;22233;42.708;23.360;2023-09-19T07:30:39;95718.38;;;21.40;55.96
36192;BME280;22233;42.708;23.360;2023-09-19T07:33:07;95710.50;;;21.42;55.61
36192;BME280;22233;42.708;23.360;2023-09-19T07:35:32;95720.31;;;21.36;56.38
36192;BME280;22233;42.708;23.360;2023-09-19T07:37:59;95723.34;;;21.27;57.01
36192;BME280;22233;42.708;23.360;2023-09-19T07:40:27;95722.28;;;21.66;55.06
36192;BME280;22233;42.708;23.360;2023-09-19T07:42:54;95720.34;;;21.70;54.97
36192;BME280;22233;42.708;23.360;2023-09-19T07:45:19;95715.97;;;21.69;55.88
36192;BME280;22233;42.708;23.360;2023-09-19T07:47:46;95719.78;;;21.91;54.06
36192;BME280;22233;42.708;23.360;2023-09-19T07:50:12;95722.41;;;22.14;54.54
36192;BME280;22233;42.708;23.360;2023-09-19T07:52:37;95718.72;;;22.03;54.79
36192;BME280;22233;42.708;23.360;2023-09-19T07:55:05;95729.03;;;22.06;53.42
36192;BME280;22233;42.708;23.360;2023-09-19T07:57:34;95723.34;;;21.91;53.92
36192;BME280;22233;42.708;23.360;2023-09-19T08:00:00;95725.28;;;22.25;54.76
36192;BME280;22233;42.708;23.360;2023-09-19T08:02:25;95728.38;;;22.20;52.71
36192;BME280;22233;42.708;23.360;2023-09-19T08:04:51;95727.50;;;22.12;53.49
36192;BME280;22233;42.708;23.360;2023-09-19T08:07:17;95727.47;;;22.46;52.65
36192;BME280;22233;42.708;23.360;2023-09-19T08:09:43;95716.41;;;22.49;52.20
36192;BME280;22233;42.708;23.360;2023-09-19T08:12:13;95697.09;;;22.12;53.81
36192;BME280;22233;42.708;23.360;2023-09-19T08:14:40;95702.09;;;22.40;52.85
36192;BME280;22233;42.708;23.360;2023-09-19T08:17:06;95701.34;;;22.47;53.37
36192;BME280;22233;42.708;23.360;2023-09-19T08:19:33;95703.38;;;22.50;53.53
36192;BME280;22233;42.708;23.360;2023-09-19T08:21:59;95704.09;;;22.40;53.66
36192;BME280;22233;42.708;23.360;2023-09-19T08:24:28;95700.28;;;22.59;52.87
36192;BME280;22233;42.708;23.360;2023-09-19T08:26:56;95685.94;;;22.46;52.00
36192;BME280;22233;42.708;23.360;2023-09-19T08:29:23;95692.28;;;22.46;52.92
36192;BME280;22233;42.708;23.360;2023-09-19T08:31:56;95693.16;;;22.61;52.89
36192;BME280;22233;42.708;23.360;2023-09-19T08:34:23;95685.19;;;22.52;52.55
36192;BME280;22233;42.708;23.360;2023-09-19T08:36:53;95699.22;;;22.74;52.82
36192;BME280;22233;42.708;23.360;2023-09-19T08:39:24;95698.44;;;22.81;52.34
36192;BME280;22233;42.708;23.360;2023-09-19T08:42:00;95701.47;;;22.61;52.50
36192;BME280;22233;42.708;23.360;2023-09-19T08:44:26;95697.13;;;22.19;53.00
36192;BME280;22233;42.708;23.360;2023-09-19T08:46:58;95696.75;;;22.65;52.58
36192;BME280;22233;42.708;23.360;2023-09-19T08:52:16;95685.19;;;23.04;51.79
36192;BME280;22233;42.708;23.360;2023-09-19T08:54:47;95673.97;;;22.86;51.93
36192;BME280;22233;42.708;23.360;2023-09-19T08:57:15;95690.94;;;22.81;52.44
36192;BME280;22233;42.708;23.360;2023-09-19T08:59:47;95688.56;;;22.83;52.04
36192;BME280;22233;42.708;23.360;2023-09-19T09:02:14;95671.63;;;22.92;51.51
36192;BME280;22233;42.708;23.360;2023-09-19T09:04:43;95691.25;;;22.69;53.01
36192;BME280;22233;42.708;23.360;2023-09-19T09:07:12;95677.69;;;23.08;51.88
36192;BME280;22233;42.708;23.360;2023-09-19T09:09:39;95688.41;;;23.17;51.69
36192;BME280;22233;42.708;23.360;2023-09-19T09:12:10;95673.41;;;23.29;50.65
36192;BME280;22233;42.708;23.360;2023-09-19T09:14:39;95685.31;;;23.33;51.04
36192;BME280;22233;42.708;23.360;2023-09-19T09:17:05;95676.59;;;23.31;50.27
36192;BME280;22233;42.708;23.360;2023-09-19T09:19:30;95668.22;;;23.17;50.65
36192;BME280;22233;42.708;23.360;2023-09-19T09:22:08;95671.81;;;23.28;50.60
36192;BME280;22233;42.708;23.360;2023-09-19T09:24:34;95667.09;;;23.28;50.93
36192;BME280;22233;42.708;23.360;2023-09-19T09:27:03;95671.50;;;23.47;50.01
36192;BME280;22233;42.708;23.360;2023-09-19T09:29:43;95662.44;;;23.61;49.95
36192;BME280;22233;42.708;23.360;2023-09-19T09:32:22;95660.94;;;23.82;49.44
36192;BME280;22233;42.708;23.360;2023-09-19T09:35:01;95657.66;;;23.58;50.10
36192;BME280;22233;42.708;23.360;2023-09-19T09:37:27;95647.06;;;23.78;49.29
36192;BME280;22233;42.708;23.360;2023-09-19T09:40:00;95641.44;;;23.64;49.90
36192;BME280;22233;42.708;23.360;2023-09-19T09:42:45;95638.38;;;23.90;49.84
36192;BME280;22233;42.708;23.360;2023-09-19T09:45:22;95647.88;;;24.00;49.37
36192;BME280;22233;42.708;23.360;2023-09-19T09:48:03;95633.63;;;24.30;48.59
36192;BME280;22233;42.708;23.360;2023-09-19T09:50:35;95638.00;;;24.39;48.49
36192;BME280;22233;42.708;23.360;2023-09-19T09:53:09;95634.44;;;24.45;47.45
36192;BME280;22233;42.708;23.360;2023-09-19T09:55:58;95631.25;;;24.32;48.33
36192;BME280;22233;42.708;23.360;2023-09-19T09:58:28;95626.50;;;24.40;48.62
36192;BME280;22233;42.708;23.360;2023-09-19T10:00:57;95625.31;;;24.41;48.88
36192;BME280;22233;42.708;23.360;2023-09-19T10:03:35;95618.16;;;24.37;47.97
36192;BME280;22233;42.708;23.360;2023-09-19T10:06:10;95618.56;;;24.64;48.17
36192;BME280;22233;42.708;23.360;2023-09-19T10:09:04;95628.06;;;24.63;47.45
36192;BME280;22233;42.708;23.360;2023-09-19T10:11:44;95619.72;;;24.81;47.62
36192;BME280;22233;42.708;23.360;2023-09-19T10:14:11;95619.34;;;24.75;47.57
36192;BME280;22233;42.708;23.360;2023-09-19T10:16:41;95619.72;;;24.81;46.73
36192;BME280;22233;42.708;23.360;2023-09-19T10:19:36;95618.50;;;24.92;47.21
36192;BME280;22233;42.708;23.360;2023-09-19T10:21:59;95620.44;;;25.06;47.48
36192;BME280;22233;42.708;23.360;2023-09-19T10:24:28;95615.66;;;25.07;46.47
36192;BME280;22233;42.708;23.360;2023-09-19T10:26:54;95614.84;;;25.17;46.96
36192;BME280;22233;42.708;23.360;2023-09-19T10:29:21;95608.09;;;25.22;46.86
36192;BME280;22233;42.708;23.360;2023-09-19T10:31:47;95616.47;;;25.04;46.50
36192;BME280;22233;42.708;23.360;2023-09-19T10:34:17;95608.47;;;25.20;46.12
36192;BME280;22233;42.708;23.360;2023-09-19T10:36:46;95613.59;;;25.36;45.91
36192;BME280;22233;42.708;23.360;2023-09-19T10:39:15;95598.94;;;25.28;46.24
36192;BME280;22233;42.708;23.360;2023-09-19T10:41:50;95594.16;;;25.33;45.75
36192;BME280;22233;42.708;23.360;2023-09-19T10:44:22;95601.72;;;25.32;46.51
36192;BME280;22233;42.708;23.360;2023-09-19T10:46:49;95604.44;;;25.39;46.74
36192;BME280;22233;42.708;23.360;2023-09-19T10:49:14;95596.34;;;25.66;45.88
36192;BME280;22233;42.708;23.360;2023-09-19T10:51:42;95601.94;;;25.63;45.91
36192;BME280;22233;42.708;23.360;2023-09-19T10:54:12;95582.06;;;25.64;45.37
36192;BME280;22233;42.708;23.360;2023-09-19T10:56:42;95590.31;;;25.79;45.67
36192;BME280;22233;42.708;23.360;2023-09-19T10:59:16;95584.28;;;25.91;45.63
36192;BME280;22233;42.708;23.360;2023-09-19T11:01:49;95583.03;;;25.99;45.80
36192;BME280;22233;42.708;23.360;2023-09-19T11:04:29;95582.59;;;26.08;44.99
36192;BME280;22233;42.708;23.360;2023-09-19T11:07:11;95583.38;;;26.08;45.14
36192;BME280;22233;42.708;23.360;2023-09-19T11:09:54;95573.09;;;26.02;45.25
36192;BME280;22233;42.708;23.360;2023-09-19T11:14:54;95581.94;;;25.82;45.12
36192;BME280;22233;42.708;23.360;2023-09-19T11:30:44;95560.88;;;26.34;44.68
36192;BME280;22233;42.708;23.360;2023-09-19T11:36:12;95557.47;;;26.57;44.48
36192;BME280;22233;42.708;23.360;2023-09-19T11:43:48;95540.13;;;26.80;43.56
36192;BME280;22233;42.708;23.360;2023-09-19T11:46:13;95536.22;;;26.74;43.93
36192;BME280;22233;42.708;23.360;2023-09-19T11:48:42;95520.03;;;26.96;43.12
36192;BME280;22233;42.708;23.360;2023-09-19T11:51:11;95511.25;;;26.97;43.12
36192;BME280;22233;42.708;23.360;2023-09-19T11:53:45;95523.38;;;27.14;43.11
36192;BME280;22233;42.708;23.360;2023-09-19T11:56:15;95516.13;;;26.89;42.91
36192;BME280;22233;42.708;23.360;2023-09-19T11:58:45;95525.00;;;27.12;43.16
36192;BME280;22233;42.708;23.360;2023-09-19T12:01:13;95515.97;;;27.35;42.96
36192;BME280;22233;42.708;23.360;2023-09-19T12:03:42;95507.69;;;27.27;42.58
36192;BME280;22233;42.708;23.360;2023-09-19T12:06:14;95508.63;;;27.44;42.28
36192;BME280;22233;42.708;23.360;2023-09-19T12:08:41;95506.03;;;27.61;42.13
36192;BME280;22233;42.708;23.360;2023-09-19T12:11:12;95497.38;;;27.52;41.98
36192;BME280;22233;42.708;23.360;2023-09-19T12:13:44;95495.22;;;27.63;41.24
36192;BME280;22233;42.708;23.360;2023-09-19T12:16:19;95492.00;;;27.64;42.45
36192;BME280;22233;42.708;23.360;2023-09-19T12:18:49;95495.69;;;27.58;41.59
36192;BME280;22233;42.708;23.360;2023-09-19T12:21:25;95494.00;;;27.64;42.23
36192;BME280;22233;42.708;23.360;2023-09-19T12:24:13;95480.69;;;27.48;41.96
36192;BME280;22233;42.708;23.360;2023-09-19T12:26:40;95487.88;;;27.73;42.03
36192;BME280;22233;42.708;23.360;2023-09-19T12:29:17;95483.16;;;27.42;42.25
36192;BME280;22233;42.708;23.360;2023-09-19T12:31:58;95484.75;;;27.43;42.28
36192;BME280;22233;42.708;23.360;2023-09-19T12:34:26;95472.47;;;27.64;42.60
36192;BME280;22233;42.708;23.360;2023-09-19T12:37:11;95449.22;;;27.98;41.70
36192;BME280;22233;42.708;23.360;2023-09-19T12:39:45;95475.97;;;28.19;40.83
36192;BME280;22233;42.708;23.360;2023-09-19T12:42:23;95470.50;;;28.12;40.81
36192;BME280;22233;42.708;23.360;2023-09-19T12:44:51;95462.84;;;28.16;40.86
36192;BME280;22233;42.708;23.360;2023-09-19T12:47:22;95454.44;;;28.40;40.75
36192;BME280;22233;42.708;23.360;2023-09-19T12:52:39;95466.84;;;28.59;40.44
36192;BME280;22233;42.708;23.360;2023-09-19T12:55:05;95466.00;;;28.82;39.78
36192;BME280;22233;42.708;23.360;2023-09-19T12:57:33;95460.47;;;28.98;39.41
36192;BME280;22233;42.708;23.360;2023-09-19T13:00:03;95461.16;;;29.22;38.29
36192;BME280;22233;42.708;23.360;2023-09-19T13:02:31;95443.16;;;29.23;37.99
36192;BME280;22233;42.708;23.360;2023-09-19T13:04:56;95445.66;;;29.54;38.77
36192;BME280;22233;42.708;23.360;2023-09-19T13:07:43;95426.22;;;29.63;38.22
36192;BME280;22233;42.708;23.360;2023-09-19T13:10:11;95446.25;;;29.62;38.10
36192;BME280;22233;42.708;23.360;2023-09-19T13:12:37;95430.16;;;29.66;38.50
36192;BME280;22233;42.708;23.360;2023-09-19T13:15:08;95443.44;;;29.62;38.52
36192;BME280;22233;42.708;23.360;2023-09-19T13:17:45;95420.34;;;29.41;38.57
36192;BME280;22233;42.708;23.360;2023-09-19T13:20:40;95435.41;;;29.47;38.93
36192;BME280;22233;42.708;23.360;2023-09-19T13:23:34;95441.00;;;29.47;39.02
36192;BME280;22233;42.708;23.360;2023-09-19T13:26:01;95434.97;;;29.33;38.69
36192;BME280;22233;42.708;23.360;2023-09-19T13:28:26;95426.03;;;29.38;39.09
36192;BME280;22233;42.708;23.360;2023-09-19T13:30:53;95421.25;;;29.71;38.57
36192;BME280;22233;42.708;23.360;2023-09-19T13:33:19;95409.88;;;29.95;37.59
36192;BME280;22233;42.708;23.360;2023-09-19T13:35:46;95419.97;;;30.21;37.92
36192;BME280;22233;42.708;23.360;2023-09-19T13:38:13;95419.56;;;30.06;37.43
36192;BME280;22233;42.708;23.360;2023-09-19T13:40:38;95410.91;;;30.01;37.70
36192;BME280;22233;42.708;23.360;2023-09-19T13:43:05;95409.16;;;30.07;37.71